首页
METAR-TAF:

METAR-TAF

机场 :

科利佐沃國際機場

葉卡捷琳堡, 俄罗斯

纬度: 56-50N, 经度: 060-38E, 海拔: 237米

当前天气观测

该预报发布于44分钟前的20:00 UTC
风速10节,风向西北
温度 -5°C
湿度 93%
气压 993 hPa
能見度: 6000
散云层高于1100英尺
阴天层高于2800英尺, 积雨云.
小阵雪

METAR: USSS 262000Z 32005MPS 6000 -SHSN SCT011 OVC028CB M05/M06 Q0993 R26R/490235 NOSIG RMK QFE724/0966

时间: 01:44 (20:44 UTC)

预报

该预报发布于46分钟前的19:58 UTC
预报有效从26日的 21点(UTC)到 27日的 21点(UTC)
风速10节,风向西北,有时为33节阵风
能見度: 3100
多云层高于1100英尺, 积雨云.
小阵雪
成为
从 27日的 03点(UTC)到 27日的 05点(UTC)
风速12节,风向西,有时为33节阵风
能見度: 6000
小阵雪
成为
从 27日的 05点(UTC)到 27日的 06点(UTC)
能见度10公里或以上
散云层高于1600英尺, 积雨云.
从 27日的 1200点(UTC)
风速6节,风向西转西南,有时为23节阵风
能見度: 3100
多云层高于1100英尺
小雪

TAF: USSS 261958Z 2621/2721 32005G17MPS 3100 -SHSN BKN011CB BECMG 2703/2705 28006G17MPS 6000 -SHSN BECMG 2705/2706 9999 SCT016CB FM271200 24003G12MPS 3100 -SN BKN011

超过4000个机场的气象观测和天气预报(METAR&TAF报告)。

可查询的气象台以黄色和红色小点在地图上表示。

将鼠标移到小点上方,可查看气象台名称。

然后点击查看天气观测和预报。

如需切换地图:点击带黑十字的绿色按钮放大地图;点击带横线的绿色按钮缩小地图;或者点击绿色箭头查看邻近地区的地图。


METAR-TAF: